sensor_id;sensor_type;location;lat;lon;timestamp;temperature;humidity
46400;DHT22;32104;50.838;4.388;2022-12-07T00:00:26;7.10;99.90
46400;DHT22;32104;50.838;4.388;2022-12-07T00:03:00;7.00;99.90
46400;DHT22;32104;50.838;4.388;2022-12-07T00:05:29;7.00;99.90
46400;DHT22;32104;50.838;4.388;2022-12-07T00:07:58;6.90;99.90
46400;DHT22;32104;50.838;4.388;2022-12-07T00:10:26;6.90;99.90
46400;DHT22;32104;50.838;4.388;2022-12-07T00:12:52;6.90;99.90
46400;DHT22;32104;50.838;4.388;2022-12-07T00:15:21;6.80;99.90
46400;DHT22;32104;50.838;4.388;2022-12-07T00:17:50;6.70;99.90
46400;DHT22;32104;50.838;4.388;2022-12-07T00:20:21;6.70;99.90
46400;DHT22;32104;50.838;4.388;2022-12-07T00:22:50;6.60;99.90
46400;DHT22;32104;50.838;4.388;2022-12-07T00:25:19;6.70;99.90
46400;DHT22;32104;50.838;4.388;2022-12-07T00:27:50;6.70;99.90
46400;DHT22;32104;50.838;4.388;2022-12-07T00:30:25;6.70;99.90
46400;DHT22;32104;50.838;4.388;2022-12-07T00:32:54;6.60;99.90
46400;DHT22;32104;50.838;4.388;2022-12-07T00:35:20;6.60;99.90
46400;DHT22;32104;50.838;4.388;2022-12-07T00:37:46;6.50;99.90
46400;DHT22;32104;50.838;4.388;2022-12-07T00:40:19;6.60;99.90
46400;DHT22;32104;50.838;4.388;2022-12-07T00:42:45;6.60;99.90
46400;DHT22;32104;50.838;4.388;2022-12-07T00:45:11;6.50;99.90
46400;DHT22;32104;50.838;4.388;2022-12-07T00:47:38;6.40;99.90
46400;DHT22;32104;50.838;4.388;2022-12-07T00:50:06;6.50;99.90
46400;DHT22;32104;50.838;4.388;2022-12-07T00:52:35;6.50;99.90
46400;DHT22;32104;50.838;4.388;2022-12-07T00:55:01;6.40;99.90
46400;DHT22;32104;50.838;4.388;2022-12-07T00:57:28;6.40;99.90
46400;DHT22;32104;50.838;4.388;2022-12-07T00:59:58;6.40;99.90
46400;DHT22;32104;50.838;4.388;2022-12-07T01:02:25;6.40;99.90
46400;DHT22;32104;50.838;4.388;2022-12-07T01:04:51;6.30;99.90
46400;DHT22;32104;50.838;4.388;2022-12-07T01:07:21;6.40;99.90
46400;DHT22;32104;50.838;4.388;2022-12-07T01:09:48;6.40;99.90
46400;DHT22;32104;50.838;4.388;2022-12-07T01:28:29;6.30;99.90
46400;DHT22;32104;50.838;4.388;2022-12-07T01:31:14;6.40;99.90
46400;DHT22;32104;50.838;4.388;2022-12-07T01:39:11;6.30;99.90
46400;DHT22;32104;50.838;4.388;2022-12-07T01:41:42;6.30;99.90
46400;DHT22;32104;50.838;4.388;2022-12-07T01:52:23;6.30;99.90
46400;DHT22;32104;50.838;4.388;2022-12-07T01:55:09;6.40;99.90
46400;DHT22;32104;50.838;4.388;2022-12-07T02:00:14;6.40;99.90
46400;DHT22;32104;50.838;4.388;2022-12-07T03:18:08;6.20;99.90
46400;DHT22;32104;50.838;4.388;2022-12-07T03:20:46;6.20;99.90
46400;DHT22;32104;50.838;4.388;2022-12-07T03:23:33;6.20;99.90
46400;DHT22;32104;50.838;4.388;2022-12-07T03:26:11;6.20;99.90
46400;DHT22;32104;50.838;4.388;2022-12-07T03:28:52;6.00;99.90
46400;DHT22;32104;50.838;4.388;2022-12-07T03:31:26;6.10;99.90
46400;DHT22;32104;50.838;4.388;2022-12-07T03:43:12;6.20;99.90
46400;DHT22;32104;50.838;4.388;2022-12-07T03:49:02;6.10;99.90
46400;DHT22;32104;50.838;4.388;2022-12-07T03:51:56;6.10;99.90
46400;DHT22;32104;50.838;4.388;2022-12-07T03:54:41;6.20;99.90
46400;DHT22;32104;50.838;4.388;2022-12-07T03:57:19;6.10;99.90
46400;DHT22;32104;50.838;4.388;2022-12-07T03:59:55;6.10;99.90
46400;DHT22;32104;50.838;4.388;2022-12-07T04:02:27;6.00;99.90
46400;DHT22;32104;50.838;4.388;2022-12-07T04:04:55;5.90;99.90
46400;DHT22;32104;50.838;4.388;2022-12-07T04:07:26;5.80;99.90
46400;DHT22;32104;50.838;4.388;2022-12-07T04:09:57;5.80;99.90
46400;DHT22;32104;50.838;4.388;2022-12-07T04:12:26;5.80;99.90
46400;DHT22;32104;50.838;4.388;2022-12-07T04:15:10;5.80;99.90
46400;DHT22;32104;50.838;4.388;2022-12-07T04:17:45;5.70;99.90
46400;DHT22;32104;50.838;4.388;2022-12-07T04:20:19;5.80;99.90
46400;DHT22;32104;50.838;4.388;2022-12-07T04:22:45;5.80;99.90
46400;DHT22;32104;50.838;4.388;2022-12-07T04:25:14;5.90;99.90
46400;DHT22;32104;50.838;4.388;2022-12-07T04:27:42;5.90;99.90
46400;DHT22;32104;50.838;4.388;2022-12-07T04:30:08;5.90;99.90
46400;DHT22;32104;50.838;4.388;2022-12-07T04:32:34;5.80;99.90
46400;DHT22;32104;50.838;4.388;2022-12-07T04:35:00;5.90;99.90
46400;DHT22;32104;50.838;4.388;2022-12-07T04:37:26;5.90;99.90
46400;DHT22;32104;50.838;4.388;2022-12-07T04:39:51;5.90;99.90
46400;DHT22;32104;50.838;4.388;2022-12-07T04:42:20;5.90;99.90
46400;DHT22;32104;50.838;4.388;2022-12-07T04:44:45;6.00;99.90
46400;DHT22;32104;50.838;4.388;2022-12-07T04:47:11;6.00;99.90
46400;DHT22;32104;50.838;4.388;2022-12-07T04:49:37;5.90;99.90
46400;DHT22;32104;50.838;4.388;2022-12-07T04:52:07;6.00;99.90
46400;DHT22;32104;50.838;4.388;2022-12-07T06:07:12;6.10;99.90
46400;DHT22;32104;50.838;4.388;2022-12-07T06:09:41;6.20;99.90
46400;DHT22;32104;50.838;4.388;2022-12-07T06:27:52;6.10;99.90
46400;DHT22;32104;50.838;4.388;2022-12-07T06:30:18;6.00;99.90
46400;DHT22;32104;50.838;4.388;2022-12-07T06:35:50;6.10;99.90
46400;DHT22;32104;50.838;4.388;2022-12-07T06:38:21;6.10;99.90
46400;DHT22;32104;50.838;4.388;2022-12-07T06:40:48;6.00;99.90
46400;DHT22;32104;50.838;4.388;2022-12-07T06:53:38;6.10;99.90
46400;DHT22;32104;50.838;4.388;2022-12-07T06:56:13;6.20;99.90
46400;DHT22;32104;50.838;4.388;2022-12-07T06:58:40;6.30;99.90
46400;DHT22;32104;50.838;4.388;2022-12-07T07:11:27;6.30;99.90
46400;DHT22;32104;50.838;4.388;2022-12-07T07:13:56;6.40;99.90
46400;DHT22;32104;50.838;4.388;2022-12-07T07:16:35;6.50;99.90
46400;DHT22;32104;50.838;4.388;2022-12-07T07:26:45;6.40;99.90
46400;DHT22;32104;50.838;4.388;2022-12-07T07:29:34;6.50;99.90
46400;DHT22;32104;50.838;4.388;2022-12-07T07:32:21;6.40;99.90
46400;DHT22;32104;50.838;4.388;2022-12-07T07:40:15;6.40;99.90
46400;DHT22;32104;50.838;4.388;2022-12-07T07:53:32;6.30;99.90
46400;DHT22;32104;50.838;4.388;2022-12-07T07:56:04;6.30;99.90
46400;DHT22;32104;50.838;4.388;2022-12-07T07:58:29;6.30;99.90
46400;DHT22;32104;50.838;4.388;2022-12-07T08:00:55;6.30;99.90
46400;DHT22;32104;50.838;4.388;2022-12-07T08:03:24;6.20;99.90
46400;DHT22;32104;50.838;4.388;2022-12-07T08:05:50;6.30;99.90
46400;DHT22;32104;50.838;4.388;2022-12-07T08:08:22;6.30;99.90
46400;DHT22;32104;50.838;4.388;2022-12-07T08:10:55;6.30;99.90
46400;DHT22;32104;50.838;4.388;2022-12-07T08:13:23;6.30;99.90
46400;DHT22;32104;50.838;4.388;2022-12-07T08:15:53;6.30;99.90
46400;DHT22;32104;50.838;4.388;2022-12-07T08:18:19;6.20;99.90
46400;DHT22;32104;50.838;4.388;2022-12-07T08:20:45;6.20;99.90
46400;DHT22;32104;50.838;4.388;2022-12-07T08:23:12;6.20;99.90
46400;DHT22;32104;50.838;4.388;2022-12-07T08:25:38;6.20;99.90
46400;DHT22;32104;50.838;4.388;2022-12-07T08:28:04;6.20;99.90
46400;DHT22;32104;50.838;4.388;2022-12-07T08:30:31;6.20;99.90
46400;DHT22;32104;50.838;4.388;2022-12-07T08:32:57;6.20;99.90
46400;DHT22;32104;50.838;4.388;2022-12-07T08:35:25;6.30;99.90
46400;DHT22;32104;50.838;4.388;2022-12-07T08:37:51;6.10;99.90
46400;DHT22;32104;50.838;4.388;2022-12-07T08:40:17;6.20;99.90
46400;DHT22;32104;50.838;4.388;2022-12-07T08:42:48;6.10;99.90
46400;DHT22;32104;50.838;4.388;2022-12-07T08:45:15;6.20;99.90
46400;DHT22;32104;50.838;4.388;2022-12-07T08:50:14;6.40;99.90
46400;DHT22;32104;50.838;4.388;2022-12-07T08:52:43;6.30;99.90
46400;DHT22;32104;50.838;4.388;2022-12-07T08:55:17;6.40;99.90
46400;DHT22;32104;50.838;4.388;2022-12-07T08:57:44;6.50;99.90
46400;DHT22;32104;50.838;4.388;2022-12-07T09:00:10;6.60;99.90
46400;DHT22;32104;50.838;4.388;2022-12-07T09:02:36;6.70;99.90
46400;DHT22;32104;50.838;4.388;2022-12-07T09:05:03;6.80;99.90
46400;DHT22;32104;50.838;4.388;2022-12-07T09:07:30;6.90;99.90
46400;DHT22;32104;50.838;4.388;2022-12-07T09:09:58;6.80;99.90
46400;DHT22;32104;50.838;4.388;2022-12-07T09:12:26;6.80;99.90
46400;DHT22;32104;50.838;4.388;2022-12-07T09:15:06;7.00;99.90
46400;DHT22;32104;50.838;4.388;2022-12-07T09:17:35;7.20;99.90
46400;DHT22;32104;50.838;4.388;2022-12-07T09:20:07;7.30;99.90
46400;DHT22;32104;50.838;4.388;2022-12-07T09:22:36;7.40;99.90
46400;DHT22;32104;50.838;4.388;2022-12-07T09:25:02;7.40;99.90
46400;DHT22;32104;50.838;4.388;2022-12-07T09:27:31;7.50;99.90
46400;DHT22;32104;50.838;4.388;2022-12-07T09:29:57;7.50;99.90
46400;DHT22;32104;50.838;4.388;2022-12-07T09:32:25;7.50;99.90
46400;DHT22;32104;50.838;4.388;2022-12-07T09:34:52;7.40;99.90
46400;DHT22;32104;50.838;4.388;2022-12-07T09:37:18;7.40;99.90
46400;DHT22;32104;50.838;4.388;2022-12-07T09:39:46;7.40;99.90
46400;DHT22;32104;50.838;4.388;2022-12-07T09:42:29;7.50;99.90
46400;DHT22;32104;50.838;4.388;2022-12-07T09:44:59;7.60;99.90
46400;DHT22;32104;50.838;4.388;2022-12-07T09:47:25;7.70;99.90
46400;DHT22;32104;50.838;4.388;2022-12-07T09:49:53;7.70;99.90
46400;DHT22;32104;50.838;4.388;2022-12-07T09:52:27;7.80;99.90
46400;DHT22;32104;50.838;4.388;2022-12-07T09:54:55;7.80;99.90
46400;DHT22;32104;50.838;4.388;2022-12-07T09:57:28;7.80;99.90
46400;DHT22;32104;50.838;4.388;2022-12-07T09:59:56;7.90;99.90
46400;DHT22;32104;50.838;4.388;2022-12-07T10:02:37;7.90;99.90
46400;DHT22;32104;50.838;4.388;2022-12-07T10:05:10;7.80;99.90
46400;DHT22;32104;50.838;4.388;2022-12-07T10:07:38;7.80;99.90
46400;DHT22;32104;50.838;4.388;2022-12-07T10:10:17;7.70;99.90
46400;DHT22;32104;50.838;4.388;2022-12-07T10:13:15;7.80;99.90
46400;DHT22;32104;50.838;4.388;2022-12-07T10:18:34;8.10;99.90
46400;DHT22;32104;50.838;4.388;2022-12-07T10:21:27;8.10;99.90
46400;DHT22;32104;50.838;4.388;2022-12-07T10:24:14;8.00;99.90
46400;DHT22;32104;50.838;4.388;2022-12-07T10:29:50;7.80;99.90
46400;DHT22;32104;50.838;4.388;2022-12-07T10:35:34;7.80;99.90
46400;DHT22;32104;50.838;4.388;2022-12-07T10:38:28;8.00;99.90
46400;DHT22;32104;50.838;4.388;2022-12-07T10:41:32;8.00;99.90
46400;DHT22;32104;50.838;4.388;2022-12-07T10:44:02;8.00;99.90
46400;DHT22;32104;50.838;4.388;2022-12-07T10:50:02;7.80;99.90
46400;DHT22;32104;50.838;4.388;2022-12-07T10:55:41;7.90;99.90
46400;DHT22;32104;50.838;4.388;2022-12-07T11:01:50;7.90;99.90
46400;DHT22;32104;50.838;4.388;2022-12-07T11:05:11;7.90;99.90
46400;DHT22;32104;50.838;4.388;2022-12-07T11:15:18;8.20;99.90
46400;DHT22;32104;50.838;4.388;2022-12-07T11:18:13;8.10;99.90
46400;DHT22;32104;50.838;4.388;2022-12-07T11:25:54;8.00;99.90
46400;DHT22;32104;50.838;4.388;2022-12-07T11:29:06;7.80;99.90
46400;DHT22;32104;50.838;4.388;2022-12-07T11:32:12;7.90;99.90
46400;DHT22;32104;50.838;4.388;2022-12-07T11:53:27;8.20;99.90
46400;DHT22;32104;50.838;4.388;2022-12-07T12:14:08;8.90;99.90
46400;DHT22;32104;50.838;4.388;2022-12-07T12:20:41;8.80;99.90
46400;DHT22;32104;50.838;4.388;2022-12-07T12:26:24;8.50;99.90
46400;DHT22;32104;50.838;4.388;2022-12-07T12:29:53;8.40;99.90
46400;DHT22;32104;50.838;4.388;2022-12-07T12:32:44;8.30;99.90
46400;DHT22;32104;50.838;4.388;2022-12-07T12:41:59;8.20;99.90
46400;DHT22;32104;50.838;4.388;2022-12-07T12:52:59;8.70;99.90
46400;DHT22;32104;50.838;4.388;2022-12-07T13:09:36;9.00;99.90
46400;DHT22;32104;50.838;4.388;2022-12-07T13:12:21;9.00;99.90
46400;DHT22;32104;50.838;4.388;2022-12-07T13:20:08;9.10;99.90
46400;DHT22;32104;50.838;4.388;2022-12-07T13:30:18;9.30;99.90
46400;DHT22;32104;50.838;4.388;2022-12-07T13:35:53;9.10;99.90
46400;DHT22;32104;50.838;4.388;2022-12-07T13:38:36;8.80;99.90
46400;DHT22;32104;50.838;4.388;2022-12-07T13:41:44;8.80;99.90
46400;DHT22;32104;50.838;4.388;2022-12-07T13:44:18;8.80;99.90
46400;DHT22;32104;50.838;4.388;2022-12-07T13:47:16;8.80;99.90
46400;DHT22;32104;50.838;4.388;2022-12-07T13:53:12;8.50;99.90
46400;DHT22;32104;50.838;4.388;2022-12-07T13:55:45;8.50;99.90
46400;DHT22;32104;50.838;4.388;2022-12-07T13:58:12;8.70;99.90
46400;DHT22;32104;50.838;4.388;2022-12-07T14:03:36;8.70;99.90
46400;DHT22;32104;50.838;4.388;2022-12-07T14:06:21;8.70;99.90
46400;DHT22;32104;50.838;4.388;2022-12-07T14:08:50;8.70;99.90
46400;DHT22;32104;50.838;4.388;2022-12-07T14:12:05;8.60;99.90
46400;DHT22;32104;50.838;4.388;2022-12-07T14:14:34;8.40;99.90
46400;DHT22;32104;50.838;4.388;2022-12-07T14:17:16;8.40;99.90
46400;DHT22;32104;50.838;4.388;2022-12-07T14:22:58;8.20;99.90
46400;DHT22;32104;50.838;4.388;2022-12-07T14:25:49;8.20;99.90
46400;DHT22;32104;50.838;4.388;2022-12-07T14:28:32;7.70;99.90
46400;DHT22;32104;50.838;4.388;2022-12-07T14:31:07;7.50;99.90
46400;DHT22;32104;50.838;4.388;2022-12-07T14:33:34;7.30;99.90
46400;DHT22;32104;50.838;4.388;2022-12-07T14:36:13;7.20;99.90
46400;DHT22;32104;50.838;4.388;2022-12-07T14:44:14;7.00;99.90
46400;DHT22;32104;50.838;4.388;2022-12-07T14:46:44;6.90;99.90
46400;DHT22;32104;50.838;4.388;2022-12-07T14:49:18;7.10;99.90
46400;DHT22;32104;50.838;4.388;2022-12-07T14:51:47;7.20;99.90
46400;DHT22;32104;50.838;4.388;2022-12-07T14:54:28;7.30;99.90
46400;DHT22;32104;50.838;4.388;2022-12-07T14:57:10;7.20;99.90
46400;DHT22;32104;50.838;4.388;2022-12-07T15:00:02;7.20;99.90
46400;DHT22;32104;50.838;4.388;2022-12-07T15:02:59;7.00;99.90
46400;DHT22;32104;50.838;4.388;2022-12-07T15:05:55;6.80;99.90
46400;DHT22;32104;50.838;4.388;2022-12-07T15:12:01;6.80;99.90
46400;DHT22;32104;50.838;4.388;2022-12-07T15:14:38;7.00;99.90
46400;DHT22;32104;50.838;4.388;2022-12-07T15:17:10;7.00;99.90
46400;DHT22;32104;50.838;4.388;2022-12-07T15:19:38;6.90;99.90
46400;DHT22;32104;50.838;4.388;2022-12-07T15:22:04;7.00;99.90
46400;DHT22;32104;50.838;4.388;2022-12-07T15:24:41;7.10;99.90
46400;DHT22;32104;50.838;4.388;2022-12-07T15:27:16;7.10;99.90
46400;DHT22;32104;50.838;4.388;2022-12-07T15:29:42;7.10;99.90
46400;DHT22;32104;50.838;4.388;2022-12-07T15:32:11;7.20;99.90
46400;DHT22;32104;50.838;4.388;2022-12-07T15:34:40;7.10;99.90
46400;DHT22;32104;50.838;4.388;2022-12-07T15:37:07;7.30;99.90
46400;DHT22;32104;50.838;4.388;2022-12-07T15:39:36;7.30;99.90
46400;DHT22;32104;50.838;4.388;2022-12-07T15:42:05;7.30;99.90
46400;DHT22;32104;50.838;4.388;2022-12-07T15:44:31;7.20;99.90
46400;DHT22;32104;50.838;4.388;2022-12-07T15:47:16;7.20;99.90
46400;DHT22;32104;50.838;4.388;2022-12-07T15:49:42;7.50;99.90
46400;DHT22;32104;50.838;4.388;2022-12-07T15:52:17;7.40;99.90
46400;DHT22;32104;50.838;4.388;2022-12-07T15:54:47;7.40;99.90
46400;DHT22;32104;50.838;4.388;2022-12-07T15:57:13;7.30;99.90
46400;DHT22;32104;50.838;4.388;2022-12-07T15:59:40;7.30;99.90
46400;DHT22;32104;50.838;4.388;2022-12-07T16:02:10;7.30;99.90
46400;DHT22;32104;50.838;4.388;2022-12-07T16:04:41;7.30;99.90
46400;DHT22;32104;50.838;4.388;2022-12-07T16:07:22;7.30;99.90
46400;DHT22;32104;50.838;4.388;2022-12-07T16:09:57;7.30;99.90
46400;DHT22;32104;50.838;4.388;2022-12-07T16:12:37;7.40;99.90
46400;DHT22;32104;50.838;4.388;2022-12-07T16:15:12;7.50;99.90
46400;DHT22;32104;50.838;4.388;2022-12-07T16:17:54;7.60;99.90
46400;DHT22;32104;50.838;4.388;2022-12-07T16:20:21;7.60;99.90
46400;DHT22;32104;50.838;4.388;2022-12-07T16:22:51;7.70;99.90
46400;DHT22;32104;50.838;4.388;2022-12-07T16:25:18;7.70;99.90
46400;DHT22;32104;50.838;4.388;2022-12-07T16:27:45;7.70;99.90
46400;DHT22;32104;50.838;4.388;2022-12-07T16:30:13;7.70;99.90
46400;DHT22;32104;50.838;4.388;2022-12-07T16:32:53;7.50;99.90
46400;DHT22;32104;50.838;4.388;2022-12-07T16:35:25;7.60;99.90
46400;DHT22;32104;50.838;4.388;2022-12-07T16:37:59;7.70;99.90
46400;DHT22;32104;50.838;4.388;2022-12-07T16:40:37;7.70;99.90
46400;DHT22;32104;50.838;4.388;2022-12-07T16:43:08;7.70;99.90
46400;DHT22;32104;50.838;4.388;2022-12-07T16:45:48;7.60;99.90
46400;DHT22;32104;50.838;4.388;2022-12-07T16:48:41;7.50;99.90
46400;DHT22;32104;50.838;4.388;2022-12-07T16:51:27;7.40;99.90
46400;DHT22;32104;50.838;4.388;2022-12-07T16:54:22;7.20;99.90
46400;DHT22;32104;50.838;4.388;2022-12-07T16:57:15;7.30;99.90
46400;DHT22;32104;50.838;4.388;2022-12-07T17:03:14;7.40;99.90
46400;DHT22;32104;50.838;4.388;2022-12-07T17:22:48;7.60;99.90
46400;DHT22;32104;50.838;4.388;2022-12-07T17:25:29;7.40;99.90
46400;DHT22;32104;50.838;4.388;2022-12-07T17:30:33;7.30;99.90
46400;DHT22;32104;50.838;4.388;2022-12-07T17:33:12;7.30;99.90
46400;DHT22;32104;50.838;4.388;2022-12-07T17:38:39;7.30;99.90
46400;DHT22;32104;50.838;4.388;2022-12-07T17:41:28;7.30;99.90
46400;DHT22;32104;50.838;4.388;2022-12-07T17:46:47;7.50;99.90
46400;DHT22;32104;50.838;4.388;2022-12-07T17:49:25;7.50;99.90
46400;DHT22;32104;50.838;4.388;2022-12-07T17:51:54;7.50;99.90
46400;DHT22;32104;50.838;4.388;2022-12-07T17:54:39;7.50;99.90
46400;DHT22;32104;50.838;4.388;2022-12-07T17:57:26;7.60;99.90
46400;DHT22;32104;50.838;4.388;2022-12-07T18:07:41;7.50;99.90
46400;DHT22;32104;50.838;4.388;2022-12-07T18:10:09;7.30;99.90
46400;DHT22;32104;50.838;4.388;2022-12-07T18:12:59;7.50;99.90
46400;DHT22;32104;50.838;4.388;2022-12-07T18:15:47;7.30;99.90
46400;DHT22;32104;50.838;4.388;2022-12-07T18:18:13;7.30;99.90
46400;DHT22;32104;50.838;4.388;2022-12-07T18:20:39;7.30;99.90
46400;DHT22;32104;50.838;4.388;2022-12-07T18:23:09;7.20;99.90
46400;DHT22;32104;50.838;4.388;2022-12-07T18:25:58;7.20;99.90
46400;DHT22;32104;50.838;4.388;2022-12-07T18:28:27;7.30;99.90
46400;DHT22;32104;50.838;4.388;2022-12-07T18:30:56;7.40;99.90
46400;DHT22;32104;50.838;4.388;2022-12-07T18:56:46;6.80;99.90
46400;DHT22;32104;50.838;4.388;2022-12-07T19:31:28;6.60;99.90
46400;DHT22;32104;50.838;4.388;2022-12-07T19:33:56;6.30;99.90
46400;DHT22;32104;50.838;4.388;2022-12-07T19:36:27;6.60;99.90
46400;DHT22;32104;50.838;4.388;2022-12-07T19:38:57;6.40;99.90
46400;DHT22;32104;50.838;4.388;2022-12-07T19:44:35;6.50;99.90
46400;DHT22;32104;50.838;4.388;2022-12-07T19:47:13;6.70;99.90
46400;DHT22;32104;50.838;4.388;2022-12-07T19:49:44;6.70;99.90
46400;DHT22;32104;50.838;4.388;2022-12-07T19:52:52;6.50;99.90
46400;DHT22;32104;50.838;4.388;2022-12-07T19:56:03;6.60;99.90
46400;DHT22;32104;50.838;4.388;2022-12-07T19:58:37;6.60;99.90
46400;DHT22;32104;50.838;4.388;2022-12-07T20:01:25;6.60;99.90
46400;DHT22;32104;50.838;4.388;2022-12-07T20:04:19;6.60;99.90
46400;DHT22;32104;50.838;4.388;2022-12-07T20:06:51;6.50;99.90
46400;DHT22;32104;50.838;4.388;2022-12-07T20:09:20;6.50;99.90
46400;DHT22;32104;50.838;4.388;2022-12-07T20:11:49;6.40;99.90
46400;DHT22;32104;50.838;4.388;2022-12-07T20:14:36;6.30;99.90
46400;DHT22;32104;50.838;4.388;2022-12-07T20:17:16;6.40;99.90
46400;DHT22;32104;50.838;4.388;2022-12-07T20:19:45;6.40;99.90
46400;DHT22;32104;50.838;4.388;2022-12-07T20:22:20;6.40;99.90
46400;DHT22;32104;50.838;4.388;2022-12-07T20:25:14;6.40;99.90
46400;DHT22;32104;50.838;4.388;2022-12-07T20:27:49;6.40;99.90
46400;DHT22;32104;50.838;4.388;2022-12-07T20:30:26;6.40;99.90
46400;DHT22;32104;50.838;4.388;2022-12-07T20:32:54;6.40;99.90
46400;DHT22;32104;50.838;4.388;2022-12-07T20:35:20;6.40;99.90
46400;DHT22;32104;50.838;4.388;2022-12-07T20:37:48;6.20;99.90
46400;DHT22;32104;50.838;4.388;2022-12-07T20:40:30;6.30;99.90
46400;DHT22;32104;50.838;4.388;2022-12-07T20:43:07;6.40;99.90
46400;DHT22;32104;50.838;4.388;2022-12-07T20:46:16;6.40;99.90
46400;DHT22;32104;50.838;4.388;2022-12-07T20:51:52;6.20;99.90
46400;DHT22;32104;50.838;4.388;2022-12-07T20:54:25;6.30;99.90
46400;DHT22;32104;50.838;4.388;2022-12-07T20:56:55;6.20;99.90
46400;DHT22;32104;50.838;4.388;2022-12-07T22:30:09;6.40;99.90
46400;DHT22;32104;50.838;4.388;2022-12-07T22:45:57;6.40;99.90
46400;DHT22;32104;50.838;4.388;2022-12-07T22:48:33;6.40;99.90
46400;DHT22;32104;50.838;4.388;2022-12-07T22:51:02;6.50;99.90
46400;DHT22;32104;50.838;4.388;2022-12-07T22:53:38;6.50;99.90
46400;DHT22;32104;50.838;4.388;2022-12-07T22:56:22;6.50;99.90
46400;DHT22;32104;50.838;4.388;2022-12-07T22:59:11;6.40;99.90
46400;DHT22;32104;50.838;4.388;2022-12-07T23:25:03;6.20;99.90
46400;DHT22;32104;50.838;4.388;2022-12-07T23:45:37;6.10;99.90
46400;DHT22;32104;50.838;4.388;2022-12-07T23:48:06;6.10;99.90
46400;DHT22;32104;50.838;4.388;2022-12-07T23:55:58;6.00;99.90
